createdAt,value
2022-08-20T00:02:14.748Z,23.38
2022-08-20T00:04:42.120Z,23.36
2022-08-20T00:07:09.310Z,23.33
2022-08-20T00:09:37.058Z,23.28
2022-08-20T00:12:05.493Z,23.24
2022-08-20T00:14:33.881Z,23.19
2022-08-20T00:17:04.039Z,23.19
2022-08-20T00:19:31.337Z,23.14
2022-08-20T00:21:58.699Z,23.07
2022-08-20T00:24:26.082Z,23.02
2022-08-20T00:26:53.561Z,22.98
2022-08-20T00:29:22.490Z,22.91
2022-08-20T00:31:50.543Z,22.89
2022-08-20T00:34:19.484Z,22.85
2022-08-20T00:36:47.056Z,22.79
2022-08-20T00:39:14.454Z,22.77
2022-08-20T00:41:41.605Z,22.75
2022-08-20T00:44:11.559Z,22.72
2022-08-20T00:46:40.542Z,22.68
2022-08-20T00:49:12.534Z,22.67
2022-08-20T00:51:44.338Z,22.66
2022-08-20T00:54:20.776Z,22.61
2022-08-20T00:56:50.948Z,22.52
2022-08-20T00:59:23.906Z,22.45
2022-08-20T01:01:55.091Z,22.42
2022-08-20T01:04:25.498Z,22.38
2022-08-20T01:06:54.477Z,22.38
2022-08-20T01:09:49.905Z,22.32
2022-08-20T01:12:10.487Z,22.28
2022-08-20T01:14:46.842Z,22.26
2022-08-20T01:17:17.830Z,22.24
2022-08-20T01:19:49.445Z,22.18
2022-08-20T01:22:44.041Z,22.15
2022-08-20T01:25:19.497Z,22.14
2022-08-20T01:27:55.665Z,22.11
2022-08-20T01:30:26.846Z,22.09
2022-08-20T01:32:54.168Z,22.10
2022-08-20T01:35:22.461Z,22.09
2022-08-20T01:37:49.928Z,22.05
2022-08-20T01:40:27.953Z,22.02
2022-08-20T01:42:59.671Z,22.01
2022-08-20T01:45:29.264Z,22.02
2022-08-20T01:47:58.379Z,22.05
2022-08-20T01:50:29.072Z,22.06
2022-08-20T01:53:01.117Z,22.09
2022-08-20T01:55:28.446Z,22.09
2022-08-20T01:57:57.807Z,22.09
2022-08-20T02:00:25.296Z,22.06
2022-08-20T02:02:52.461Z,22.07
2022-08-20T02:05:20.385Z,22.05
2022-08-20T02:07:47.874Z,22.05
2022-08-20T02:10:18.842Z,22.04
2022-08-20T02:12:46.109Z,22.02
2022-08-20T02:15:15.185Z,22.00
2022-08-20T02:17:44.317Z,21.98
2022-08-20T02:20:15.535Z,21.97
2022-08-20T02:22:50.147Z,21.98
2022-08-20T02:25:18.760Z,21.98
2022-08-20T02:27:48.809Z,21.92
2022-08-20T02:30:27.484Z,21.86
2022-08-20T02:32:56.285Z,21.82
2022-08-20T02:35:24.496Z,21.78
2022-08-20T02:37:52.727Z,21.76
2022-08-20T02:40:30.622Z,21.77
2022-08-20T02:42:59.960Z,21.77
2022-08-20T02:45:30.628Z,21.72
2022-08-20T02:47:59.116Z,21.69
2022-08-20T02:50:27.769Z,21.68
2022-08-20T02:52:55.110Z,21.65
2022-08-20T02:55:27.497Z,21.61
2022-08-20T02:57:57.904Z,21.57
2022-08-20T03:00:37.811Z,21.52
2022-08-20T03:03:07.226Z,21.50
2022-08-20T03:05:34.578Z,21.49
2022-08-20T03:08:01.785Z,21.49
2022-08-20T03:10:32.306Z,21.50
2022-08-20T03:13:02.278Z,21.50
2022-08-20T03:15:32.891Z,21.48
2022-08-20T03:18:01.046Z,21.45
2022-08-20T03:20:30.293Z,21.44
2022-08-20T03:22:59.205Z,21.42
2022-08-20T03:25:26.808Z,21.41
2022-08-20T03:27:54.809Z,21.37
2022-08-20T03:30:24.450Z,21.31
2022-08-20T03:32:53.601Z,21.25
2022-08-20T03:35:22.953Z,21.24
2022-08-20T03:37:50.547Z,21.23
2022-08-20T03:40:22.970Z,21.23
2022-08-20T03:42:52.617Z,21.25
2022-08-20T03:45:20.913Z,21.26
2022-08-20T03:47:48.905Z,21.29
2022-08-20T03:50:22.708Z,21.32
2022-08-20T03:52:51.281Z,21.32
2022-08-20T03:55:18.950Z,21.33
2022-08-20T03:57:47.749Z,21.39
2022-08-20T04:00:19.399Z,21.42
2022-08-20T04:02:46.708Z,21.49
2022-08-20T04:05:14.061Z,21.55
2022-08-20T04:07:42.617Z,21.63
2022-08-20T04:10:11.391Z,21.70
2022-08-20T04:12:48.632Z,21.77
2022-08-20T04:15:21.325Z,21.84
2022-08-20T04:17:54.298Z,21.91
2022-08-20T04:20:25.907Z,22.00
2022-08-20T04:22:59.289Z,22.08
2022-08-20T04:25:29.536Z,22.17
2022-08-20T04:27:58.271Z,22.27
2022-08-20T04:30:26.345Z,22.31
2022-08-20T04:32:54.408Z,22.38
2022-08-20T04:35:24.797Z,22.44
2022-08-20T04:37:59.749Z,22.46
2022-08-20T04:40:47.002Z,22.49
2022-08-20T04:43:14.801Z,22.42
2022-08-20T04:45:42.568Z,22.36
2022-08-20T04:48:14.721Z,22.41
2022-08-20T04:50:44.749Z,22.54
2022-08-20T04:53:19.131Z,22.65
2022-08-20T04:55:48.522Z,22.78
2022-08-20T04:58:18.449Z,22.98
2022-08-20T05:00:48.048Z,23.21
2022-08-20T05:03:15.773Z,23.49
2022-08-20T05:05:45.145Z,23.75
2022-08-20T05:08:20.171Z,23.98
2022-08-20T05:10:47.706Z,24.12
2022-08-20T05:13:14.958Z,24.32
2022-08-20T05:15:42.697Z,24.50
2022-08-20T05:18:10.203Z,24.64
2022-08-20T05:20:40.389Z,24.85
2022-08-20T05:23:09.042Z,25.10
2022-08-20T05:25:38.529Z,25.38
2022-08-20T05:28:09.683Z,25.63
2022-08-20T05:30:37.436Z,25.79
2022-08-20T05:33:05.919Z,25.79
2022-08-20T05:35:35.932Z,25.90
2022-08-20T05:38:03.223Z,26.13
2022-08-20T05:40:30.690Z,26.27
2022-08-20T05:42:59.233Z,26.40
2022-08-20T05:45:26.674Z,26.59
2022-08-20T05:47:56.596Z,26.72
2022-08-20T05:50:24.071Z,26.94
2022-08-20T05:52:51.494Z,27.02
2022-08-20T05:55:18.810Z,27.16
2022-08-20T05:57:46.145Z,27.18
2022-08-20T06:00:15.309Z,27.26
2022-08-20T06:03:01.498Z,27.44
2022-08-20T06:05:28.910Z,27.64
2022-08-20T06:07:57.921Z,27.85
2022-08-20T06:10:36.503Z,28.13
2022-08-20T06:13:04.990Z,28.26
2022-08-20T06:15:35.414Z,28.41
2022-08-20T06:18:16.648Z,28.52
2022-08-20T06:20:55.392Z,28.71
2022-08-20T06:23:25.326Z,28.95
2022-08-20T06:25:53.017Z,29.24
2022-08-20T06:28:20.753Z,29.53
2022-08-20T06:30:49.336Z,29.79
2022-08-20T06:33:16.606Z,30.05
2022-08-20T06:35:44.753Z,30.31
2022-08-20T06:38:12.929Z,30.42
2022-08-20T06:40:40.102Z,30.64
2022-08-20T06:43:09.169Z,30.77
2022-08-20T06:45:38.924Z,30.93
2022-08-20T06:48:15.067Z,31.12
2022-08-20T06:50:47.327Z,31.40
2022-08-20T06:53:18.473Z,31.60
2022-08-20T06:55:48.763Z,31.80
2022-08-20T06:58:35.684Z,32.09
2022-08-20T07:01:05.244Z,32.40
2022-08-20T07:03:39.292Z,32.70
2022-08-20T07:06:09.765Z,32.98
2022-08-20T07:08:37.196Z,33.23
2022-08-20T07:11:04.705Z,33.41
2022-08-20T07:13:32.066Z,33.52
2022-08-20T07:15:59.240Z,33.62
2022-08-20T07:18:27.912Z,33.73
2022-08-20T07:20:57.787Z,33.91
2022-08-20T07:23:25.666Z,34.11
2022-08-20T07:25:53.642Z,34.37
2022-08-20T07:28:24.037Z,34.63
2022-08-20T07:31:12.726Z,34.70
2022-08-20T07:33:42.335Z,34.89
2022-08-20T07:36:13.991Z,35.10
2022-08-20T07:38:41.485Z,35.33
2022-08-20T07:41:13.173Z,35.42
2022-08-20T07:43:41.180Z,35.18
2022-08-20T07:46:09.346Z,34.95
2022-08-20T07:48:40.063Z,34.72
2022-08-20T07:51:09.209Z,34.76
2022-08-20T07:53:40.350Z,35.02
2022-08-20T07:56:11.678Z,35.05
2022-08-20T07:58:42.730Z,35.08
2022-08-20T08:01:11.492Z,35.28
2022-08-20T08:03:48.966Z,35.54
2022-08-20T08:06:29.966Z,35.71
2022-08-20T08:09:03.433Z,35.83
2022-08-20T08:11:32.441Z,36.00
2022-08-20T08:14:00.343Z,36.17
2022-08-20T08:16:28.661Z,36.37
2022-08-20T08:18:56.927Z,36.41
2022-08-20T08:21:25.770Z,36.44
2022-08-20T08:23:53.594Z,36.73
2022-08-20T08:26:22.447Z,36.92
2022-08-20T08:28:49.716Z,36.93
2022-08-20T08:31:17.017Z,36.96
2022-08-20T08:33:44.682Z,37.04
2022-08-20T08:36:14.878Z,37.01
2022-08-20T08:38:45.577Z,37.11
2022-08-20T08:41:17.230Z,37.23
2022-08-20T08:43:48.139Z,37.27
2022-08-20T08:46:22.677Z,37.43
2022-08-20T08:48:53.440Z,37.55
2022-08-20T08:51:28.239Z,37.75
2022-08-20T08:53:57.105Z,38.04
2022-08-20T08:56:27.984Z,38.23
2022-08-20T08:59:00.573Z,37.81
2022-08-20T09:01:55.424Z,37.51
2022-08-20T09:04:21.702Z,37.32
2022-08-20T09:06:52.250Z,37.62
2022-08-20T09:09:25.046Z,37.96
2022-08-20T09:11:55.477Z,37.86
2022-08-20T09:14:27.060Z,37.61
2022-08-20T09:16:54.282Z,37.14
2022-08-20T09:19:21.649Z,37.27
2022-08-20T09:21:49.569Z,37.59
2022-08-20T09:24:16.806Z,37.74
2022-08-20T09:26:44.257Z,37.75
2022-08-20T09:29:11.608Z,37.72
2022-08-20T09:31:40.925Z,37.81
2022-08-20T09:34:08.210Z,37.92
2022-08-20T09:36:35.480Z,38.21
2022-08-20T09:39:03.381Z,38.56
2022-08-20T09:41:31.014Z,38.80
2022-08-20T09:44:01.494Z,39.04
2022-08-20T09:46:28.666Z,39.06
2022-08-20T09:48:57.468Z,39.02
2022-08-20T09:51:24.858Z,39.11
2022-08-20T09:53:52.157Z,38.77
2022-08-20T09:56:19.597Z,38.55
2022-08-20T09:58:50.112Z,38.47
2022-08-20T10:01:19.807Z,38.41
2022-08-20T10:03:49.123Z,38.31
2022-08-20T10:06:20.242Z,38.62
2022-08-20T10:08:48.774Z,38.82
2022-08-20T10:11:16.419Z,38.97
2022-08-20T10:13:45.594Z,39.27
2022-08-20T10:16:12.811Z,39.53
2022-08-20T10:18:40.129Z,39.43
2022-08-20T10:21:09.975Z,39.45
2022-08-20T10:23:38.691Z,39.23
2022-08-20T10:26:07.652Z,38.88
2022-08-20T10:28:35.459Z,38.57
2022-08-20T10:31:04.682Z,38.47
2022-08-20T10:33:31.913Z,38.43
2022-08-20T10:36:05.817Z,38.34
2022-08-20T10:38:32.900Z,38.63
2022-08-20T10:41:01.618Z,39.00
2022-08-20T10:43:29.026Z,38.83
2022-08-20T10:45:56.550Z,38.43
2022-08-20T10:48:24.420Z,38.68
2022-08-20T10:50:51.888Z,39.15
2022-08-20T10:53:19.333Z,39.53
2022-08-20T10:55:47.066Z,39.83
2022-08-20T10:58:15.675Z,39.95
2022-08-20T11:00:43.238Z,40.09
2022-08-20T11:03:10.422Z,40.25
2022-08-20T11:05:37.714Z,40.27
2022-08-20T11:08:05.906Z,40.53
2022-08-20T11:10:35.220Z,40.63
2022-08-20T11:13:03.161Z,40.42
2022-08-20T11:15:33.945Z,40.40
2022-08-20T11:18:01.626Z,40.70
2022-08-20T11:20:30.413Z,40.71
2022-08-20T11:22:58.439Z,40.69
2022-08-20T11:25:26.082Z,40.74
2022-08-20T11:27:54.502Z,40.62
2022-08-20T11:30:24.358Z,40.60
2022-08-20T11:32:53.120Z,40.67
2022-08-20T11:35:43.289Z,40.75
2022-08-20T11:38:11.263Z,40.68
2022-08-20T11:40:38.740Z,40.53
2022-08-20T11:43:15.220Z,40.55
2022-08-20T11:45:44.522Z,40.56
2022-08-20T11:48:13.907Z,40.51
2022-08-20T11:50:41.266Z,40.64
2022-08-20T11:53:08.433Z,40.79
2022-08-20T11:55:36.217Z,40.98
2022-08-20T11:58:04.081Z,40.99
2022-08-20T12:00:33.919Z,40.83
2022-08-20T12:03:02.235Z,40.64
2022-08-20T12:05:30.933Z,40.41
2022-08-20T12:08:00.305Z,40.35
2022-08-20T12:10:28.320Z,40.56
2022-08-20T12:12:55.735Z,40.76
2022-08-20T12:15:23.134Z,40.63
2022-08-20T12:17:50.427Z,40.25
2022-08-20T12:20:17.650Z,40.20
2022-08-20T12:22:46.609Z,40.39
2022-08-20T12:25:14.133Z,40.76
2022-08-20T12:27:42.285Z,41.07
2022-08-20T12:30:12.459Z,41.25
2022-08-20T12:32:40.029Z,41.12
2022-08-20T12:35:08.789Z,41.07
2022-08-20T12:37:36.950Z,41.22
2022-08-20T12:40:09.457Z,41.40
2022-08-20T12:42:37.146Z,41.43
2022-08-20T12:45:05.609Z,41.33
2022-08-20T12:47:34.661Z,40.99
2022-08-20T12:50:05.437Z,40.00
2022-08-20T12:52:32.868Z,39.44
2022-08-20T12:55:00.965Z,39.46
2022-08-20T12:57:32.205Z,39.55
2022-08-20T13:00:03.722Z,39.35
2022-08-20T13:02:32.337Z,38.95
2022-08-20T13:05:04.607Z,38.69
2022-08-20T13:07:33.247Z,38.42
2022-08-20T13:10:01.190Z,38.20
2022-08-20T13:12:29.878Z,38.03
2022-08-20T13:14:57.210Z,37.83
2022-08-20T13:17:38.454Z,37.80
2022-08-20T13:20:10.124Z,37.67
2022-08-20T13:22:37.531Z,37.51
2022-08-20T13:25:05.468Z,37.39
2022-08-20T13:27:38.376Z,37.28
2022-08-20T13:30:08.309Z,37.30
2022-08-20T13:32:35.632Z,37.31
2022-08-20T13:35:03.321Z,37.36
2022-08-20T13:37:30.777Z,37.75
2022-08-20T13:39:59.632Z,38.06
2022-08-20T13:42:27.828Z,38.09
2022-08-20T13:44:56.590Z,37.96
2022-08-20T13:47:26.385Z,38.04
2022-08-20T13:49:59.063Z,38.12
2022-08-20T13:52:27.438Z,37.99
2022-08-20T13:54:54.981Z,37.72
2022-08-20T13:57:23.712Z,37.63
2022-08-20T13:59:53.055Z,37.44
2022-08-20T14:02:22.641Z,37.23
2022-08-20T14:04:51.221Z,37.12
2022-08-20T14:07:21.872Z,37.14
2022-08-20T14:09:51.762Z,37.34
2022-08-20T14:12:18.909Z,37.46
2022-08-20T14:14:46.209Z,37.59
2022-08-20T14:17:20.121Z,37.86
2022-08-20T14:19:49.139Z,38.16
2022-08-20T14:22:17.866Z,38.32
2022-08-20T14:24:46.166Z,38.42
2022-08-20T14:27:15.113Z,38.35
2022-08-20T14:29:45.993Z,38.28
2022-08-20T14:32:13.575Z,38.16
2022-08-20T14:34:41.625Z,37.96
2022-08-20T14:37:16.191Z,38.02
2022-08-20T14:39:45.390Z,38.18
2022-08-20T14:42:12.809Z,38.18
2022-08-20T14:44:40.981Z,38.12
2022-08-20T14:47:14.150Z,37.78
2022-08-20T14:49:42.214Z,37.36
2022-08-20T14:52:09.417Z,37.05
2022-08-20T14:54:38.349Z,36.83
2022-08-20T14:57:13.062Z,36.60
2022-08-20T14:59:41.341Z,36.39
2022-08-20T15:02:10.721Z,36.22
2022-08-20T15:04:38.258Z,36.01
2022-08-20T15:07:16.354Z,35.79
2022-08-20T15:09:45.070Z,35.67
2022-08-20T15:12:12.346Z,35.62
2022-08-20T15:14:39.656Z,35.57
2022-08-20T15:17:10.269Z,35.58
2022-08-20T15:19:37.419Z,35.71
2022-08-20T15:22:04.962Z,35.88
2022-08-20T15:24:32.132Z,35.96
2022-08-20T15:27:11.262Z,36.02
2022-08-20T15:29:38.785Z,36.02
2022-08-20T15:32:07.669Z,36.06
2022-08-20T15:34:35.063Z,36.12
2022-08-20T15:37:07.252Z,36.13
2022-08-20T15:39:34.552Z,36.10
2022-08-20T15:42:04.465Z,36.11
2022-08-20T15:44:31.906Z,36.11
2022-08-20T15:47:15.728Z,36.00
2022-08-20T15:49:43.890Z,35.92
2022-08-20T15:52:11.898Z,35.86
2022-08-20T15:54:39.875Z,35.86
2022-08-20T15:57:12.709Z,35.82
2022-08-20T15:59:54.682Z,35.78
2022-08-20T16:02:49.215Z,35.72
2022-08-20T16:05:19.779Z,35.63
2022-08-20T16:07:58.753Z,35.49
2022-08-20T16:10:34.242Z,35.40
2022-08-20T16:13:09.703Z,35.33
2022-08-20T16:15:41.171Z,35.26
2022-08-20T16:18:17.010Z,35.17
2022-08-20T16:20:47.995Z,35.08
2022-08-20T16:23:18.106Z,34.98
2022-08-20T16:26:05.850Z,34.89
2022-08-20T16:28:47.234Z,34.75
2022-08-20T16:31:18.898Z,34.62
2022-08-20T16:33:58.502Z,34.47
2022-08-20T16:36:34.765Z,34.31
2022-08-20T16:39:05.259Z,34.19
2022-08-20T16:41:37.258Z,34.02
2022-08-20T16:44:12.591Z,33.87
2022-08-20T16:46:49.193Z,33.76
2022-08-20T16:49:16.649Z,33.63
2022-08-20T16:51:51.727Z,33.49
2022-08-20T16:54:29.325Z,33.37
2022-08-20T16:57:00.475Z,33.22
2022-08-20T16:59:29.524Z,33.08
2022-08-20T17:02:10.434Z,32.93
2022-08-20T17:04:46.242Z,32.83
2022-08-20T17:07:30.988Z,32.68
2022-08-20T17:10:11.763Z,32.55
2022-08-20T17:12:39.125Z,32.45
2022-08-20T17:15:17.946Z,32.37
2022-08-20T17:17:45.203Z,32.32
2022-08-20T17:20:20.242Z,32.24
2022-08-20T17:22:50.091Z,32.18
2022-08-20T17:25:19.846Z,32.04
2022-08-20T17:27:48.149Z,31.97
2022-08-20T17:30:25.608Z,31.84
2022-08-20T17:32:58.364Z,31.75
2022-08-20T17:35:32.881Z,31.67
2022-08-20T17:38:04.433Z,31.59
2022-08-20T17:40:39.987Z,31.51
2022-08-20T17:43:08.972Z,31.39
2022-08-20T17:45:41.492Z,31.18
2022-08-20T17:48:13.625Z,31.08
2022-08-20T17:50:42.710Z,31.04
2022-08-20T17:53:19.879Z,30.96
2022-08-20T17:55:53.464Z,30.92
2022-08-20T17:58:24.760Z,30.85
2022-08-20T18:00:53.328Z,30.85
2022-08-20T18:03:23.307Z,30.83
2022-08-20T18:05:57.026Z,30.82
2022-08-20T18:08:35.291Z,30.83
2022-08-20T18:11:09.961Z,30.79
2022-08-20T18:13:48.228Z,30.75
2022-08-20T18:16:26.279Z,30.69
2022-08-20T18:18:58.617Z,30.68
2022-08-20T18:21:58.286Z,30.65
2022-08-20T18:24:33.592Z,30.58
2022-08-20T18:27:09.040Z,30.53
2022-08-20T18:29:41.277Z,30.46
2022-08-20T18:32:28.662Z,30.41
2022-08-20T18:35:08.916Z,30.39
2022-08-20T18:37:36.329Z,30.34
2022-08-20T18:40:14.261Z,30.26
2022-08-20T18:42:41.577Z,30.14
2022-08-20T18:45:10.146Z,30.05
2022-08-20T18:47:45.294Z,30.01
2022-08-20T18:50:25.585Z,30.01
2022-08-20T18:53:08.767Z,30.00
2022-08-20T18:55:39.134Z,29.96
2022-08-20T18:58:09.254Z,29.91
2022-08-20T19:00:41.679Z,29.81
2022-08-20T19:03:20.711Z,29.75
2022-08-20T19:06:04.330Z,29.73
2022-08-20T19:08:42.955Z,29.76
2022-08-20T19:11:30.501Z,29.76
2022-08-20T19:14:20.745Z,29.77
2022-08-20T19:16:53.132Z,29.71
2022-08-20T19:19:24.522Z,29.66
2022-08-20T19:21:52.516Z,29.67
2022-08-20T19:24:26.266Z,29.65
2022-08-20T19:26:57.563Z,29.66
2022-08-20T19:29:28.396Z,29.61
2022-08-20T19:31:59.576Z,29.58
2022-08-20T19:34:29.382Z,29.57
2022-08-20T19:37:05.185Z,29.50
2022-08-20T19:39:47.147Z,29.45
2022-08-20T19:42:17.127Z,29.43
2022-08-20T19:44:55.590Z,29.36
2022-08-20T19:47:30.294Z,29.38
2022-08-20T19:50:16.485Z,29.35
2022-08-20T19:52:56.169Z,29.28
2022-08-20T19:55:26.205Z,29.18
2022-08-20T19:57:57.816Z,29.15
2022-08-20T20:00:27.062Z,29.14
2022-08-20T20:02:55.111Z,29.05
2022-08-20T20:05:23.882Z,28.99
2022-08-20T20:07:57.176Z,28.99
2022-08-20T20:10:32.310Z,28.86
2022-08-20T20:13:08.018Z,28.75
2022-08-20T20:15:35.953Z,28.71
2022-08-20T20:18:03.234Z,28.64
2022-08-20T20:20:33.749Z,28.55
2022-08-20T20:23:12.366Z,28.47
2022-08-20T20:25:43.256Z,28.40
2022-08-20T20:28:14.505Z,28.33
2022-08-20T20:30:44.755Z,28.29
2022-08-20T20:33:15.580Z,28.18
2022-08-20T20:35:45.369Z,28.13
2022-08-20T20:38:23.486Z,28.08
2022-08-20T20:40:54.342Z,28.04
2022-08-20T20:43:28.777Z,28.04
2022-08-20T20:46:06.646Z,27.99
2022-08-20T20:48:43.616Z,28.01
2022-08-20T20:51:22.664Z,27.94
2022-08-20T20:53:54.849Z,27.83
2022-08-20T20:56:28.727Z,27.70
2022-08-20T20:58:56.526Z,27.63
2022-08-20T21:01:41.459Z,27.62
2022-08-20T21:04:11.267Z,27.66
2022-08-20T21:06:39.813Z,27.72
2022-08-20T21:09:07.618Z,27.70
2022-08-20T21:11:34.996Z,27.63
2022-08-20T21:14:02.115Z,27.65
2022-08-20T21:16:30.181Z,27.66
2022-08-20T21:18:58.423Z,27.65
2022-08-20T21:21:25.830Z,27.62
2022-08-20T21:23:54.493Z,27.57
2022-08-20T21:26:21.822Z,27.56
2022-08-20T21:28:49.121Z,27.54
2022-08-20T21:31:16.378Z,27.48
2022-08-20T21:33:43.567Z,27.44
2022-08-20T21:36:11.007Z,27.44
2022-08-20T21:38:38.168Z,27.39
2022-08-20T21:41:07.000Z,27.30
2022-08-20T21:43:34.277Z,27.23
2022-08-20T21:46:03.666Z,27.21
2022-08-20T21:48:30.867Z,27.13
2022-08-20T21:50:58.130Z,27.13
2022-08-20T21:53:25.391Z,27.16
2022-08-20T21:55:52.743Z,27.11
2022-08-20T21:58:21.457Z,27.11
2022-08-20T22:00:54.573Z,27.09
2022-08-20T22:03:28.015Z,27.06
2022-08-20T22:05:56.178Z,27.00
2022-08-20T22:08:26.162Z,26.97
2022-08-20T22:10:57.258Z,26.93
2022-08-20T22:13:31.267Z,26.84
2022-08-20T22:15:58.680Z,26.80
2022-08-20T22:18:25.997Z,26.75
2022-08-20T22:20:53.537Z,26.70
2022-08-20T22:23:21.208Z,26.70
2022-08-20T22:25:48.993Z,26.69
2022-08-20T22:28:16.521Z,26.67
2022-08-20T22:30:45.526Z,26.61
2022-08-20T22:33:20.926Z,26.52
2022-08-20T22:35:50.846Z,26.43
2022-08-20T22:38:18.272Z,26.31
2022-08-20T22:40:45.834Z,26.18
2022-08-20T22:43:13.624Z,26.03
2022-08-20T22:45:43.480Z,25.97
2022-08-20T22:48:16.813Z,25.99
2022-08-20T22:50:45.265Z,26.04
2022-08-20T22:53:13.680Z,26.07
2022-08-20T22:55:41.842Z,26.10
2022-08-20T22:58:09.160Z,26.09
2022-08-20T23:00:38.093Z,26.11
2022-08-20T23:03:07.171Z,26.10
2022-08-20T23:05:38.001Z,26.10
2022-08-20T23:08:06.630Z,26.09
2022-08-20T23:10:37.674Z,26.01
2022-08-20T23:13:04.894Z,25.97
2022-08-20T23:15:35.035Z,25.83
2022-08-20T23:18:08.050Z,25.78
2022-08-20T23:20:37.657Z,25.77
2022-08-20T23:23:05.432Z,25.78
2022-08-20T23:25:33.488Z,25.74
2022-08-20T23:28:04.174Z,25.66
2022-08-20T23:30:32.072Z,25.64
2022-08-20T23:33:01.846Z,25.56
2022-08-20T23:35:33.058Z,25.56
2022-08-20T23:38:02.025Z,25.55
2022-08-20T23:40:30.257Z,25.53
2022-08-20T23:42:58.181Z,25.51
2022-08-20T23:45:26.699Z,25.47
2022-08-20T23:47:54.232Z,25.45
2022-08-20T23:50:24.218Z,25.44
2022-08-20T23:52:52.073Z,25.35
2022-08-20T23:55:22.750Z,25.30
2022-08-20T23:57:51.131Z,25.30
